Time;durP1;ratioP1;P1;durP2;ratioP2;P2;SDS_P1;SDS_P2;PMS_P1;PMS_P2;Temp;Humidity;BMP_temperature;BMP_pressure;BME280_temperature;BME280_humidity;BME280_pressure;Samples;Min_cycle;Max_cycle;Signal;HPM_P1;HPM_P2
2022/08/28 00:01:26;;;;;;;1.55;1.10;;;;;;;24.13;45.55;101929.91;5065685;28;20040;-55
2022/08/28 00:03:52;;;;;;;2.85;1.42;;;;;;;24.12;45.61;101930.91;5064979;28;20032;-56
2022/08/28 00:06:17;;;;;;;1.50;1.00;;;;;;;24.09;45.34;101929.41;5065504;28;20028;-50
2022/08/28 00:08:43;;;;;;;2.13;1.20;;;;;;;24.10;45.51;101931.09;5059340;28;20045;-54
2022/08/28 00:11:08;;;;;;;2.17;1.40;;;;;;;24.10;45.65;101941.13;5058964;28;20029;-51
2022/08/28 00:13:33;;;;;;;1.15;0.95;;;;;;;24.09;45.61;101937.56;5063100;28;20029;-55
2022/08/28 00:16:02;;;;;;;1.70;1.10;;;;;;;24.08;45.23;101935.00;5060920;28;20080;-54
2022/08/28 00:18:28;;;;;;;1.52;0.98;;;;;;;24.05;45.68;101936.22;5044835;28;20034;-56
2022/08/28 00:20:54;;;;;;;1.85;1.13;;;;;;;24.05;45.33;101930.78;5052432;28;20059;-52
2022/08/28 00:23:21;;;;;;;1.83;1.30;;;;;;;24.04;45.42;101929.06;5057157;28;20561;-55
2022/08/28 00:25:47;;;;;;;2.05;1.15;;;;;;;24.04;45.32;101933.66;5065054;28;20043;-54
2022/08/28 00:28:12;;;;;;;2.92;1.40;;;;;;;24.03;45.37;101935.53;5065031;28;20539;-52
2022/08/28 00:30:45;;;;;;;1.83;1.30;;;;;;;24.03;45.34;101934.69;5051250;28;20040;-54
2022/08/28 00:33:19;;;;;;;1.35;1.00;;;;;;;24.01;45.44;101931.31;5053600;28;20067;-55
2022/08/28 00:35:45;;;;;;;2.25;1.30;;;;;;;24.00;45.52;101935.03;5055054;28;20467;-55
2022/08/28 00:38:11;;;;;;;2.58;1.00;;;;;;;24.00;45.50;101935.03;5065016;28;20025;-52
2022/08/28 00:40:37;;;;;;;1.63;1.00;;;;;;;23.98;45.59;101932.50;5064810;28;20029;-55
2022/08/28 00:43:04;;;;;;;1.95;1.20;;;;;;;23.99;45.39;101933.34;5064286;28;20021;-51
2022/08/28 00:45:31;;;;;;;1.75;1.15;;;;;;;23.97;45.53;101928.09;5064732;28;20537;-55
2022/08/28 00:47:57;;;;;;;1.70;1.20;;;;;;;23.96;45.31;101926.41;5046016;28;20032;-53
2022/08/28 00:52:04;;;;;;;1.67;1.08;;;;;;;23.93;45.56;101930.31;5056571;28;20044;-54
2022/08/28 00:53:14;;;;;;;1.75;0.98;;;;;;;23.93;45.35;101932.19;5063021;28;20031;-53
2022/08/28 00:55:39;;;;;;;2.03;1.20;;;;;;;23.91;45.58;101917.94;5064459;28;20053;-55
2022/08/28 00:58:05;;;;;;;1.88;1.25;;;;;;;23.92;45.29;101925.91;5062592;28;20017;-54
2022/08/28 01:00:34;;;;;;;1.50;1.10;;;;;;;23.91;45.54;101926.91;5064927;28;20029;-55
2022/08/28 01:03:00;;;;;;;2.00;1.15;;;;;;;23.90;45.50;101925.25;5061504;28;20044;-52
2022/08/28 01:05:27;;;;;;;2.22;1.30;;;;;;;23.89;45.37;101926.28;5064619;28;20108;-55
2022/08/28 01:07:54;;;;;;;1.50;1.05;;;;;;;23.89;45.40;101922.72;5064375;28;20468;-53
2022/08/28 01:10:22;;;;;;;1.73;1.30;;;;;;;23.89;45.34;101922.72;5061228;28;20028;-53
2022/08/28 01:12:50;;;;;;;2.08;1.58;;;;;;;23.86;45.32;101926.63;5062329;28;20037;-50
2022/08/28 01:15:18;;;;;;;2.28;1.30;;;;;;;23.87;45.32;101930.16;5063049;28;20020;-55
2022/08/28 01:17:47;;;;;;;1.52;1.10;;;;;;;23.87;45.41;101922.03;5062257;28;20029;-52
2022/08/28 01:20:16;;;;;;;1.67;1.30;;;;;;;23.85;45.23;101932.22;5062690;28;20037;-50
2022/08/28 01:22:47;;;;;;;;;;;;;;;23.82;45.39;101929.88;5063344;28;20032;-55
2022/08/28 01:25:16;;;;;;;1.83;1.20;;;;;;;23.81;45.49;101923.59;5063795;28;19913;-52
2022/08/28 01:27:41;;;;;;;1.83;1.35;;;;;;;23.80;45.37;101934.63;5062659;28;20071;-53
2022/08/28 01:30:14;;;;;;;1.95;1.15;;;;;;;23.80;45.34;101926.50;5063758;28;20049;-52
2022/08/28 01:32:43;;;;;;;2.83;1.10;;;;;;;23.79;45.61;101925.66;5063259;28;20060;-51
2022/08/28 01:35:13;;;;;;;2.38;1.17;;;;;;;23.79;45.46;101925.66;5063852;28;20033;-51
2022/08/28 01:37:38;;;;;;;1.33;0.82;;;;;;;23.77;45.39;101924.97;5063918;28;20035;-55
2022/08/28 01:40:05;;;;;;;2.17;1.38;;;;;;;23.78;45.42;101928.53;5063238;28;20088;-51
2022/08/28 01:42:38;;;;;;;1.38;0.90;;;;;;;23.73;45.24;101925.50;5063018;28;20028;-55
2022/08/28 01:45:05;;;;;;;2.03;1.33;;;;;;;23.77;45.42;101929.56;5052182;28;20025;-52
2022/08/28 01:47:30;;;;;;;1.25;0.95;;;;;;;23.76;45.33;101928.72;5060898;28;20052;-54
2022/08/28 01:49:55;;;;;;;2.13;1.30;;;;;;;23.76;45.22;101927.88;5056885;28;20411;-54
2022/08/28 01:52:21;;;;;;;1.50;1.05;;;;;;;23.75;45.34;101928.91;5062641;28;20059;-51
2022/08/28 01:54:46;;;;;;;1.42;0.90;;;;;;;23.73;45.53;101937.19;5050539;28;20094;-51
2022/08/28 01:57:11;;;;;;;1.67;1.00;;;;;;;23.72;45.16;101938.22;5062295;28;20098;-52
2022/08/28 01:59:36;;;;;;;1.45;1.10;;;;;;;23.73;45.47;101939.06;5049080;28;20024;-52
2022/08/28 02:02:02;;;;;;;1.45;1.10;;;;;;;23.72;45.49;101945.53;5062634;28;20041;-51
2022/08/28 02:04:28;;;;;;;2.30;1.20;;;;;;;23.71;45.52;101944.69;5063246;28;20753;-54
2022/08/28 02:06:54;;;;;;;2.35;1.30;;;;;;;23.69;45.21;101946.72;5057595;28;20043;-54
2022/08/28 02:09:20;;;;;;;1.40;1.00;;;;;;;23.65;45.34;101939.94;5063525;28;20049;-52
2022/08/28 02:11:45;;;;;;;1.60;1.10;;;;;;;23.67;45.22;101941.47;5053311;28;20025;-52
2022/08/28 02:14:10;;;;;;;1.30;0.90;;;;;;;23.67;45.27;101946.06;5062712;28;20706;-52
2022/08/28 02:16:35;;;;;;;1.17;0.85;;;;;;;23.66;45.50;101941.63;5048407;28;20029;-50
2022/08/28 02:19:01;;;;;;;1.58;0.90;;;;;;;23.64;45.31;101944.50;5063206;28;20064;-50
2022/08/28 02:21:26;;;;;;;1.30;1.05;;;;;;;23.65;45.22;101950.81;5061182;28;20029;-52
2022/08/28 02:23:51;;;;;;;1.15;0.85;;;;;;;23.64;45.22;101943.66;5058198;28;20033;-51
2022/08/28 02:26:18;;;;;;;1.60;0.95;;;;;;;23.63;45.20;101942.81;5055600;28;20045;-53
2022/08/28 02:28:43;;;;;;;1.63;1.00;;;;;;;23.58;45.29;101936.22;5048653;28;20029;-51
2022/08/28 02:31:09;;;;;;;1.50;0.90;;;;;;;23.60;45.53;101948.59;5063223;28;20426;-51
2022/08/28 02:33:40;;;;;;;1.45;1.10;;;;;;;23.61;45.24;101944.00;5061982;28;20037;-55
2022/08/28 02:36:10;;;;;;;1.50;1.08;;;;;;;23.60;45.31;101943.16;5062991;28;20017;-53
2022/08/28 02:38:37;;;;;;;1.73;1.02;;;;;;;23.59;45.40;101944.19;5061518;28;20017;-52
2022/08/28 02:41:03;;;;;;;1.73;1.05;;;;;;;23.58;45.07;101947.94;5062962;28;20459;-55
2022/08/28 02:43:28;;;;;;;1.10;0.60;;;;;;;23.58;45.38;101947.09;5049938;28;20041;-54
2022/08/28 02:45:53;;;;;;;1.92;0.85;;;;;;;23.56;45.29;101949.94;5060907;28;20047;-55
2022/08/28 02:48:18;;;;;;;1.35;1.10;;;;;;;23.54;45.25;101946.56;5062403;28;20055;-53
2022/08/28 02:50:44;;;;;;;1.27;1.02;;;;;;;23.55;45.18;101947.41;5060744;28;20066;-54
2022/08/28 02:53:10;;;;;;;1.55;0.95;;;;;;;23.54;45.08;101953.88;5051558;28;20025;-52
2022/08/28 02:55:36;;;;;;;1.75;0.95;;;;;;;23.54;45.20;101957.44;5066508;28;20067;-48
2022/08/28 02:58:01;;;;;;;1.67;1.10;;;;;;;23.54;45.28;101953.88;5066595;28;20017;-51
2022/08/28 03:00:26;;;;;;;1.63;1.08;;;;;;;23.51;45.40;101952.34;5067159;28;20063;-57
2022/08/28 03:02:52;;;;;;;2.30;1.13;;;;;;;23.52;45.22;101953.19;5065727;28;20151;-55
2022/08/28 03:05:21;;;;;;;1.58;1.10;;;;;;;23.51;45.32;101955.06;5066928;28;20055;-52
2022/08/28 03:07:47;;;;;;;1.60;1.00;;;;;;;23.50;45.23;101953.38;5066838;28;20048;-52
2022/08/28 03:10:14;;;;;;;1.60;1.02;;;;;;;23.47;45.31;101945.56;5062476;28;20047;-55
2022/08/28 03:12:39;;;;;;;1.83;0.90;;;;;;;23.50;45.06;101952.53;5062433;28;20028;-55
2022/08/28 03:15:06;;;;;;;1.30;0.77;;;;;;;23.49;45.12;101964.38;5059723;28;20079;-51
2022/08/28 03:17:31;;;;;;;1.85;1.00;;;;;;;23.45;45.26;101951.19;5058782;28;20102;-54
2022/08/28 03:19:57;;;;;;;1.13;0.90;;;;;;;23.47;45.25;101959.16;5066395;28;20108;-53
2022/08/28 03:25:06;;;;;;;1.35;0.95;;;;;;;23.43;44.95;101961.34;5054534;28;20028;-54
2022/08/28 03:27:32;;;;;;;1.52;1.00;;;;;;;23.44;45.15;101957.59;5059511;28;20047;-51
2022/08/28 03:29:58;;;;;;;1.95;1.02;;;;;;;23.43;45.10;101968.66;5059019;28;20021;-51
2022/08/28 03:32:25;;;;;;;1.63;0.93;;;;;;;23.42;45.22;101967.81;5065964;28;20053;-52
2022/08/28 03:34:50;;;;;;;1.10;0.80;;;;;;;23.41;45.18;101968.84;5066124;28;20103;-51
2022/08/28 03:37:16;;;;;;;1.02;0.85;;;;;;;23.41;45.02;101968.00;5065174;28;20095;-56
2022/08/28 03:39:41;;;;;;;1.42;0.90;;;;;;;23.40;45.17;101971.69;5057760;28;20112;-50
2022/08/28 03:42:06;;;;;;;1.98;1.17;;;;;;;23.38;45.10;101963.75;5065876;28;20056;-51
2022/08/28 03:44:31;;;;;;;1.30;0.85;;;;;;;23.39;45.03;101972.72;5065499;28;20036;-53
2022/08/28 03:46:56;;;;;;;1.50;0.82;;;;;;;23.38;45.24;101963.75;5065460;28;20024;-51
2022/08/28 03:49:22;;;;;;;1.20;0.90;;;;;;;23.37;45.27;101956.63;5052052;28;20069;-55
2022/08/28 03:51:47;;;;;;;1.55;0.95;;;;;;;23.33;45.12;101958.00;5065857;28;20092;-51
2022/08/28 03:54:13;;;;;;;1.10;0.90;;;;;;;23.36;45.05;101967.63;5062882;28;20592;-55
2022/08/28 03:56:40;;;;;;;1.10;0.95;;;;;;;23.35;45.17;101966.78;5061600;28;20037;-55
2022/08/28 03:59:05;;;;;;;1.17;0.77;;;;;;;23.34;45.12;101969.69;5049960;28;20414;-54
2022/08/28 04:01:32;;;;;;;1.17;0.88;;;;;;;23.34;45.02;101973.25;5065267;28;20036;-49
2022/08/28 04:03:57;;;;;;;1.70;0.90;;;;;;;23.32;45.26;101959.03;5065005;28;20028;-51
2022/08/28 04:06:23;;;;;;;1.10;0.80;;;;;;;23.26;45.06;101958.84;5060878;28;20066;-51
2022/08/28 04:08:49;;;;;;;1.27;1.00;;;;;;;23.30;44.95;101977.31;5065832;28;20033;-53
2022/08/28 04:11:16;;;;;;;1.33;1.00;;;;;;;23.31;45.14;101976.31;5062624;28;20026;-52
2022/08/28 04:13:41;;;;;;;1.30;0.80;;;;;;;23.30;45.14;101985.47;5064169;28;20066;-53
2022/08/28 04:16:09;;;;;;;1.27;0.80;;;;;;;23.29;44.94;101981.06;5065622;28;20033;-54
2022/08/28 04:18:36;;;;;;;1.95;1.02;;;;;;;23.27;44.91;101985.81;5064550;28;20021;-54
2022/08/28 04:21:06;;;;;;;1.10;0.80;;;;;;;23.27;45.05;101988.50;5064609;28;20027;-54
2022/08/28 04:23:32;;;;;;;2.42;1.05;;;;;;;23.24;44.96;101991.59;5062641;28;20029;-53
2022/08/28 04:25:58;;;;;;;1.25;0.80;;;;;;;23.23;45.21;101987.16;5064466;28;20044;-51
2022/08/28 04:28:24;;;;;;;2.13;1.05;;;;;;;23.23;44.87;101989.88;5063002;28;20017;-52
2022/08/28 04:30:53;;;;;;;1.90;1.02;;;;;;;23.22;45.02;101993.63;5064736;28;20013;-51
2022/08/28 04:33:18;;;;;;;1.88;0.80;;;;;;;23.20;45.09;101991.09;5063749;28;20033;-53
2022/08/28 04:35:43;;;;;;;1.52;0.82;;;;;;;23.20;45.02;102006.53;5064197;28;20047;-55
2022/08/28 04:38:09;;;;;;;2.03;0.95;;;;;;;23.17;45.06;101996.84;5064685;28;20028;-53
2022/08/28 04:40:38;;;;;;;1.25;0.90;;;;;;;23.18;45.20;102003.13;5064705;28;20021;-56
2022/08/28 04:43:03;;;;;;;1.48;0.90;;;;;;;23.17;45.00;102004.13;5063131;28;20052;-52
2022/08/28 04:45:28;;;;;;;1.65;1.27;;;;;;;23.17;45.08;102004.97;5064425;28;20390;-56
2022/08/28 04:47:53;;;;;;;1.10;0.82;;;;;;;23.17;45.19;102004.13;5055525;28;20068;-51
2022/08/28 04:50:19;;;;;;;1.17;0.80;;;;;;;23.17;45.34;102004.13;5059150;28;20048;-57
2022/08/28 04:52:44;;;;;;;1.30;0.90;;;;;;;23.16;45.40;102014.16;5047456;28;20025;-53
2022/08/28 04:55:10;;;;;;;1.45;0.82;;;;;;;23.17;45.28;102009.56;5061450;28;20056;-58
2022/08/28 04:57:35;;;;;;;1.30;1.00;;;;;;;23.16;45.14;102011.44;5055203;28;20060;-53
2022/08/28 05:00:01;;;;;;;1.77;0.70;;;;;;;23.16;45.16;102007.88;5055324;28;20398;-52
2022/08/28 05:02:26;;;;;;;1.08;0.75;;;;;;;23.17;45.27;102015.00;5051002;28;20032;-53
2022/08/28 05:04:51;;;;;;;0.90;0.70;;;;;;;23.14;45.24;102009.91;5057628;28;20025;-55
2022/08/28 05:07:16;;;;;;;1.42;0.80;;;;;;;23.17;45.37;102015.84;5050520;28;20079;-50
2022/08/28 05:09:41;;;;;;;1.13;0.68;;;;;;;23.16;45.15;102014.16;5057670;28;20031;-56
2022/08/28 05:12:07;;;;;;;1.95;1.02;;;;;;;23.17;45.25;102021.25;5059290;28;20481;-53
2022/08/28 05:14:32;;;;;;;1.27;0.85;;;;;;;23.16;45.14;102016.03;5055357;28;20029;-55
2022/08/28 05:16:57;;;;;;;1.20;0.80;;;;;;;23.16;45.32;102024.16;5055907;28;20088;-54
2022/08/28 05:19:25;;;;;;;1.77;0.82;;;;;;;23.16;45.15;102016.84;5059623;28;20025;-49
2022/08/28 05:21:51;;;;;;;1.43;0.83;;;;;;;23.16;45.30;102024.16;5058409;28;20028;-54
2022/08/28 05:24:16;;;;;;;1.42;0.88;;;;;;;23.16;45.23;102021.44;5059204;28;20207;-52
2022/08/28 05:26:42;;;;;;;1.40;0.80;;;;;;;23.16;45.22;102029.59;5057457;28;20067;-53
2022/08/28 05:29:08;;;;;;;1.88;0.98;;;;;;;23.15;45.23;102031.44;5060403;28;20063;-53
2022/08/28 05:31:34;;;;;;;1.38;0.80;;;;;;;23.15;45.21;102027.88;5055555;28;20032;-50
2022/08/28 05:34:00;;;;;;;1.17;0.82;;;;;;;23.14;45.20;102029.72;5058645;28;20021;-52
2022/08/28 05:36:27;;;;;;;1.08;0.70;;;;;;;23.14;45.16;102027.00;5054436;28;20032;-51
2022/08/28 05:38:55;;;;;;;1.40;0.65;;;;;;;23.16;45.01;102030.44;5057929;28;20060;-55
2022/08/28 05:41:26;;;;;;;1.48;0.90;;;;;;;23.16;45.35;102029.59;5055870;28;20025;-61
2022/08/28 05:43:54;;;;;;;1.40;0.80;;;;;;;23.16;45.34;102026.88;5056570;28;20059;-54
2022/08/28 05:46:21;;;;;;;0.90;0.70;;;;;;;23.17;45.34;102017.69;5060064;28;20021;-49
2022/08/28 05:48:48;;;;;;;1.10;0.80;;;;;;;23.20;45.27;102020.09;5055250;28;20030;-48
2022/08/28 05:51:18;;;;;;;1.30;0.70;;;;;;;23.22;45.12;102028.88;5056509;28;20036;-49
2022/08/28 05:53:45;;;;;;;1.08;0.70;;;;;;;23.22;45.39;102028.88;5054758;28;20025;-48
2022/08/28 05:56:12;;;;;;;1.00;0.80;;;;;;;23.22;45.30;102033.47;5058124;28;20135;-50
2022/08/28 05:58:39;;;;;;;1.38;0.90;;;;;;;23.22;45.24;102036.19;5057661;28;20020;-49
2022/08/28 06:01:19;;;;;;;1.15;0.70;;;;;;;23.20;45.38;102026.34;5057650;28;20021;-48
2022/08/28 06:03:49;;;;;;;1.23;0.80;;;;;;;23.20;45.33;102039.91;5058073;28;20033;-50
2022/08/28 06:06:15;;;;;;;1.08;0.77;;;;;;;23.20;45.15;102030.94;5055919;28;20029;-47
2022/08/28 06:08:40;;;;;;;1.02;0.65;;;;;;;23.21;45.33;102038.06;5055760;28;20024;-48
2022/08/28 06:11:06;;;;;;;1.25;0.80;;;;;;;23.22;45.14;102037.03;5056006;28;20033;-47
2022/08/28 06:13:32;;;;;;;1.33;0.70;;;;;;;23.24;45.19;102036.88;5058259;28;20080;-49
2022/08/28 06:15:57;;;;;;;1.52;0.80;;;;;;;23.26;45.24;102042.97;5058225;28;20044;-49
2022/08/28 06:18:24;;;;;;;1.30;0.70;;;;;;;23.26;45.31;102041.09;5053251;28;20017;-48
2022/08/28 06:20:49;;;;;;;0.90;0.70;;;;;;;23.27;45.16;102044.66;5054972;28;20498;-49
2022/08/28 06:23:17;;;;;;;1.15;0.70;;;;;;;23.28;45.26;102043.63;5057076;28;20025;-47
2022/08/28 06:25:45;;;;;;;0.80;0.60;;;;;;;23.28;45.10;102044.50;5054707;28;20040;-50
2022/08/28 06:28:11;;;;;;;0.80;0.60;;;;;;;23.28;45.22;102044.50;5055433;28;20069;-48
2022/08/28 06:30:37;;;;;;;0.85;0.73;;;;;;;23.28;45.33;102049.94;5055619;28;20559;-49
2022/08/28 06:33:04;;;;;;;1.27;0.90;;;;;;;23.29;45.26;102051.63;5054457;28;20033;-49
2022/08/28 06:35:30;;;;;;;1.50;0.82;;;;;;;23.30;45.22;102053.31;5055907;28;20024;-45
2022/08/28 06:37:55;;;;;;;1.10;0.85;;;;;;;23.31;45.13;102051.44;5057058;28;20032;-52
2022/08/28 06:40:21;;;;;;;1.13;0.73;;;;;;;23.31;45.32;102055.00;5056504;28;20037;-52
2022/08/28 06:42:46;;;;;;;1.15;0.60;;;;;;;23.31;45.18;102054.16;5056891;28;20013;-49
2022/08/28 06:45:11;;;;;;;1.17;0.80;;;;;;;23.30;45.04;102056.03;5055354;28;20040;-50
2022/08/28 06:47:37;;;;;;;1.75;1.00;;;;;;;23.28;45.17;102055.34;5055954;28;20036;-51
2022/08/28 06:50:03;;;;;;;1.80;0.93;;;;;;;23.28;45.11;102049.94;5055594;28;20103;-51
2022/08/28 06:52:29;;;;;;;1.40;0.80;;;;;;;23.17;45.21;102044.84;5055809;28;20115;-50
2022/08/28 06:54:54;;;;;;;1.75;0.90;;;;;;;23.28;44.97;102059.91;5060061;28;20076;-51
2022/08/28 06:57:19;;;;;;;1.00;0.75;;;;;;;23.27;45.24;102064.50;5054117;28;20033;-51
2022/08/28 06:59:44;;;;;;;1.25;0.88;;;;;;;23.20;45.15;102045.34;5050018;28;20041;-52
2022/08/28 07:02:10;;;;;;;2.15;0.90;;;;;;;23.26;45.15;102061.97;5055875;28;20052;-51
2022/08/28 07:04:36;;;;;;;2.20;0.90;;;;;;;23.27;45.24;102055.50;5056031;28;20028;-49
2022/08/28 07:07:02;;;;;;;2.97;0.90;;;;;;;23.26;45.52;102057.38;5058894;28;20032;-51
2022/08/28 07:09:27;;;;;;;1.15;0.70;;;;;;;23.31;45.44;102059.56;5054149;28;20041;-48
2022/08/28 07:11:53;;;;;;;1.38;0.70;;;;;;;23.31;45.92;102055.00;5048566;28;20022;-54
2022/08/28 07:14:18;;;;;;;1.10;0.80;;;;;;;23.35;46.37;102058.22;5054660;28;20069;-50
2022/08/28 07:16:43;;;;;;;1.30;0.90;;;;;;;23.35;46.78;102064.50;5052828;28;20048;-47
2022/08/28 07:19:10;;;;;;;1.02;0.70;;;;;;;23.36;47.24;102055.34;5044666;28;20033;-48
2022/08/28 07:21:38;;;;;;;1.52;0.93;;;;;;;23.39;47.48;102065.84;5053286;28;20025;-53
2022/08/28 07:24:03;;;;;;;1.90;0.82;;;;;;;23.38;47.90;102063.31;5058955;28;20031;-54
2022/08/28 07:26:29;;;;;;;1.10;0.80;;;;;;;23.40;48.21;102069.41;5053683;28;20117;-50
2022/08/28 07:28:55;;;;;;;1.85;0.82;;;;;;;23.38;48.35;102069.59;5057942;28;20029;-48
2022/08/28 07:31:24;;;;;;;1.33;0.82;;;;;;;23.36;48.29;102071.66;5051860;28;20478;-54
2022/08/28 07:33:51;;;;;;;1.38;0.65;;;;;;;23.37;48.06;102069.78;5053927;28;20493;-47
2022/08/28 07:36:18;;;;;;;2.17;0.80;;;;;;;23.37;48.51;102078.75;5053239;28;20028;-53
2022/08/28 07:38:44;;;;;;;1.80;1.10;;;;;;;23.36;48.44;102077.06;5053592;28;20124;-50
2022/08/28 07:41:27;;;;;;;1.35;0.93;;;;;;;23.36;48.32;102082.50;5057927;28;20285;-51
2022/08/28 07:46:37;;;;;;;1.13;0.75;;;;;;;23.34;48.15;102078.25;5053447;28;20600;-44
2022/08/28 07:49:07;;;;;;;1.80;0.70;;;;;;;23.32;48.17;102070.28;5055575;28;20013;-49
2022/08/28 07:51:32;;;;;;;1.75;1.08;;;;;;;23.35;48.02;102085.38;5061855;28;20047;-45
2022/08/28 07:53:57;;;;;;;1.70;0.77;;;;;;;23.29;48.29;102070.63;5053764;28;20025;-52
2022/08/28 07:56:25;;;;;;;1.77;0.90;;;;;;;23.35;48.28;102078.06;5060606;28;20056;-49
2022/08/28 07:58:50;;;;;;;1.60;1.02;;;;;;;23.36;48.24;102074.34;5056978;28;20025;-49
2022/08/28 08:01:16;;;;;;;1.85;0.88;;;;;;;23.36;48.05;102085.22;5052407;28;20116;-44
2022/08/28 08:03:42;;;;;;;1.45;0.95;;;;;;;23.38;48.02;102079.59;5059899;28;20036;-55
2022/08/28 08:06:09;;;;;;;1.85;0.80;;;;;;;23.37;47.77;102083.34;5057676;28;20025;-58
2022/08/28 08:08:34;;;;;;;2.28;0.88;;;;;;;23.39;47.72;102082.13;5056294;28;20024;-62
2022/08/28 08:11:02;;;;;;;1.35;0.70;;;;;;;23.44;47.65;102084.34;5060902;28;20033;-59
2022/08/28 08:13:28;;;;;;;2.40;0.85;;;;;;;23.46;47.44;102090.47;5050223;28;20115;-57
2022/08/28 08:16:03;;;;;;;1.25;0.60;;;;;;;23.51;47.41;102084.50;5060604;28;20044;-59
2022/08/28 08:18:28;;;;;;;1.48;1.00;;;;;;;23.53;47.72;102087.88;5050490;28;20040;-61
2022/08/28 08:20:53;;;;;;;0.90;0.57;;;;;;;23.55;47.76;102081.28;5063025;28;20051;-58
2022/08/28 08:23:19;;;;;;;1.30;0.65;;;;;;;23.56;47.62;102082.97;5061580;28;20047;-59
2022/08/28 08:25:58;;;;;;;2.20;0.60;;;;;;;23.62;47.60;102085.03;5055118;28;20064;-51
2022/08/28 08:28:25;;;;;;;2.47;1.20;;;;;;;23.63;47.38;102094.84;5055820;28;20036;-52
2022/08/28 08:31:02;;;;;;;1.95;0.73;;;;;;;23.65;47.25;102097.41;5052231;28;20116;-53
2022/08/28 08:33:27;;;;;;;1.30;0.75;;;;;;;23.63;47.11;102091.28;5056025;28;20537;-55
2022/08/28 08:35:54;;;;;;;1.65;0.77;;;;;;;23.68;47.27;102095.22;5053209;28;20033;-60
2022/08/28 08:38:19;;;;;;;2.33;0.82;;;;;;;23.72;47.09;102097.59;5061727;28;20040;-61
2022/08/28 08:40:44;;;;;;;1.50;0.77;;;;;;;23.74;47.08;102090.09;5058984;28;20021;-60
2022/08/28 08:43:10;;;;;;;1.23;0.60;;;;;;;23.83;47.08;102103.53;5058650;28;20045;-58
2022/08/28 08:45:37;;;;;;;1.77;0.70;;;;;;;23.92;47.25;102093.50;5058233;28;20033;-58
2022/08/28 08:48:02;;;;;;;1.10;0.60;;;;;;;24.01;47.09;102100.59;5052730;28;20044;-56
2022/08/28 08:50:30;;;;;;;1.63;0.90;;;;;;;24.11;47.00;102095.78;5059611;28;20033;-56
2022/08/28 08:53:37;;;;;;;1.60;0.73;;;;;;;24.22;46.97;102096.47;5057052;28;20021;-60
2022/08/28 08:56:04;;;;;;;2.92;0.70;;;;;;;24.30;46.84;102094.56;5032353;28;20088;-54
2022/08/28 08:58:38;;;;;;;1.83;0.88;;;;;;;24.39;46.51;102090.81;5017670;28;20167;-55
2022/08/28 09:01:32;;;;;;;1.38;0.68;;;;;;;24.50;46.15;102095.00;5031322;28;20025;-46
2022/08/28 09:03:59;;;;;;;1.50;0.82;;;;;;;24.55;46.42;102089.03;5020553;28;20064;-48
2022/08/28 09:06:54;;;;;;;2.35;0.68;;;;;;;24.64;46.09;102090.69;5020520;28;20036;-50
2022/08/28 09:09:26;;;;;;;2.03;1.00;;;;;;;24.69;46.01;102086.41;5008705;28;20091;-49
2022/08/28 09:11:57;;;;;;;2.20;0.77;;;;;;;24.76;45.80;102097.41;5013641;28;20038;-57
2022/08/28 09:14:28;;;;;;;2.15;0.80;;;;;;;24.80;45.58;102087.84;5027179;28;20033;-50
2022/08/28 09:16:55;;;;;;;1.60;0.88;;;;;;;24.83;45.59;102095.66;5030638;28;20611;-53
2022/08/28 09:19:20;;;;;;;2.05;0.80;;;;;;;24.86;45.48;102097.19;5032656;28;20129;-59
2022/08/28 09:21:47;;;;;;;2.42;0.85;;;;;;;24.85;45.49;102096.34;5033250;28;20038;-55
2022/08/28 09:24:34;;;;;;;1.50;0.73;;;;;;;24.89;45.17;102097.69;5035649;28;20034;-55
2022/08/28 09:27:02;;;;;;;1.60;1.02;;;;;;;24.87;44.95;102094.28;5027508;28;20037;-54
2022/08/28 09:29:38;;;;;;;;;;;;;;;24.85;45.19;102090.03;5044635;28;20063;-59
2022/08/28 09:32:22;;;;;;;1.00;0.70;;;;;;;24.89;45.13;102088.66;5055890;28;19909;-49
2022/08/28 09:35:05;;;;;;;3.08;1.00;;;;;;;24.90;45.00;102096.66;5058591;28;20453;-55
2022/08/28 09:37:31;;;;;;;2.08;0.80;;;;;;;24.83;45.01;102092.09;5050234;28;20120;-55
2022/08/28 09:40:20;;;;;;;2.17;0.70;;;;;;;24.91;44.68;102095.63;5059861;28;20029;-47
2022/08/28 09:46:20;;;;;;;3.75;0.75;;;;;;;25.00;44.41;102093.69;5054692;28;20059;-60
2022/08/28 09:48:47;;;;;;;1.70;0.77;;;;;;;25.01;44.39;102092.66;5055961;28;20104;-49
2022/08/28 09:51:37;;;;;;;1.52;0.68;;;;;;;25.04;44.36;102092.31;5056509;28;20038;-53
2022/08/28 09:54:27;;;;;;;1.50;0.82;;;;;;;25.02;44.23;102090.78;5054813;28;20036;-62
2022/08/28 09:56:53;;;;;;;2.67;0.88;;;;;;;24.93;44.22;102079.09;5058737;28;20095;-46
2022/08/28 09:59:20;;;;;;;3.28;1.00;;;;;;;25.01;44.29;102092.66;5055406;28;20033;-49
2022/08/28 10:01:48;;;;;;;2.13;1.23;;;;;;;25.05;44.15;102093.16;5056685;28;20493;-48
2022/08/28 10:04:38;;;;;;;4.13;1.27;;;;;;;25.08;44.18;102090.06;5056794;28;20029;-48
2022/08/28 10:07:11;;;;;;;4.18;2.15;;;;;;;25.10;44.06;102079.88;5053334;28;20029;-51
2022/08/28 10:09:42;;;;;;;4.28;2.08;;;;;;;25.13;43.95;102077.63;5049659;28;20035;-45
2022/08/28 10:12:29;;;;;;;5.95;2.17;;;;;;;25.16;44.02;102080.00;5058901;28;20046;-48
2022/08/28 10:15:25;;;;;;;5.80;2.83;;;;;;;25.13;43.81;102076.78;5051774;28;20024;-47
2022/08/28 10:18:26;;;;;;;10.45;3.97;;;;;;;25.10;43.65;102074.44;5056432;28;20025;-49
2022/08/28 10:21:09;;;;;;;5.53;2.53;;;;;;;25.03;43.70;102079.72;5055316;28;20049;-49
2022/08/28 10:24:12;;;;;;;5.95;2.28;;;;;;;24.99;43.74;102075.69;5055393;28;20040;-50
2022/08/28 10:26:55;;;;;;;5.82;2.33;;;;;;;24.93;43.58;102069.09;5054370;28;20024;-48
2022/08/28 10:29:26;;;;;;;5.97;2.40;;;;;;;24.90;43.55;102079.50;5055775;28;20416;-50
2022/08/28 10:32:12;;;;;;;4.57;2.58;;;;;;;24.86;43.58;102079.00;5054380;28;20068;-50
2022/08/28 10:34:55;;;;;;;3.80;1.98;;;;;;;24.82;43.45;102076.81;5056647;28;20035;-50
2022/08/28 10:37:58;;;;;;;6.55;2.63;;;;;;;24.80;43.43;102070.69;5055372;28;20051;-48
2022/08/28 10:40:27;;;;;;;4.25;2.28;;;;;;;24.77;43.47;102085.53;5056304;28;20120;-50
2022/08/28 10:43:02;;;;;;;5.03;2.15;;;;;;;24.75;43.66;102092.16;5055515;28;20017;-52
2022/08/28 10:45:29;;;;;;;4.90;1.95;;;;;;;24.71;43.54;102085.38;5053459;28;20096;-47
2022/08/28 10:47:58;;;;;;;4.55;2.35;;;;;;;24.67;43.54;102093.88;5056689;28;20039;-50
2022/08/28 10:50:28;;;;;;;4.40;2.03;;;;;;;24.67;43.67;102084.88;5054444;28;20022;-52
2022/08/28 10:52:59;;;;;;;3.15;1.65;;;;;;;24.66;43.68;102083.19;5059610;28;20017;-48
2022/08/28 10:55:34;;;;;;;5.22;1.83;;;;;;;24.66;43.59;102080.47;5057400;28;20049;-48
2022/08/28 10:58:04;;;;;;;3.20;1.70;;;;;;;24.66;43.62;102075.03;5052245;28;20107;-49
2022/08/28 11:00:30;;;;;;;3.03;1.40;;;;;;;24.63;43.87;102083.53;5052431;28;20489;-46
2022/08/28 11:03:07;;;;;;;2.90;1.50;;;;;;;24.61;43.73;102086.44;5057611;28;20036;-45
2022/08/28 11:05:37;;;;;;;4.22;1.75;;;;;;;24.61;43.81;102085.59;5055691;28;20097;-53
2022/08/28 11:08:05;;;;;;;5.65;1.80;;;;;;;24.59;43.75;102091.22;5050864;28;20040;-53
2022/08/28 11:10:31;;;;;;;3.17;1.58;;;;;;;24.59;43.59;102084.94;5057332;28;20028;-55
2022/08/28 11:12:57;;;;;;;3.90;1.40;;;;;;;24.58;43.82;102081.34;5051143;28;20021;-57
2022/08/28 11:15:30;;;;;;;3.40;1.50;;;;;;;24.59;43.57;102082.19;5053251;28;20071;-46
2022/08/28 11:18:07;;;;;;;3.60;1.40;;;;;;;24.56;43.81;102079.88;5060838;28;20033;-49
2022/08/28 11:20:33;;;;;;;2.67;1.15;;;;;;;24.56;43.90;102086.16;5040315;28;20029;-46
2022/08/28 11:23:19;;;;;;;2.67;1.30;;;;;;;24.56;43.95;102078.00;5055798;28;20029;-45
2022/08/28 11:25:57;;;;;;;2.88;1.38;;;;;;;24.56;44.00;102072.56;5053791;28;20056;-51
2022/08/28 11:28:23;;;;;;;2.63;1.08;;;;;;;24.58;44.00;102080.53;5044331;28;20390;-48
2022/08/28 11:31:04;;;;;;;2.72;1.42;;;;;;;24.59;43.96;102071.31;5057850;28;20025;-47
2022/08/28 11:33:32;;;;;;;2.20;1.10;;;;;;;24.48;44.08;102056.28;5059329;28;20024;-47
2022/08/28 11:35:57;;;;;;;2.45;1.00;;;;;;;24.62;43.98;102079.97;5056819;28;20047;-47
2022/08/28 11:38:41;;;;;;;2.92;1.27;;;;;;;24.66;43.90;102075.88;5062116;28;20033;-45
2022/08/28 11:41:27;;;;;;;2.65;0.98;;;;;;;24.68;43.97;102084.72;5057503;28;20115;-45
2022/08/28 11:44:08;;;;;;;1.88;1.15;;;;;;;24.70;43.66;102079.09;5060660;28;20120;-46